Time;durP1;ratioP1;P1;durP2;ratioP2;P2;SDS_P1;SDS_P2;PMS_P1;PMS_P2;Temp;Humidity;BMP_temperature;BMP_pressure;BME280_temperature;BME280_humidity;BME280_pressure;Samples;Min_cycle;Max_cycle;Signal;HPM_P1;HPM_P2
2021/01/05 00:00:17;;;;;;;6.70;3.88;;;;;;;;;;5041613;28;20108;-72
2021/01/05 00:02:43;;;;;;;4.20;3.22;;;;;;;;;;5049971;28;20105;-72
2021/01/05 00:05:09;;;;;;;5.15;3.45;;;;;;;;;;5043624;28;20112;-72
2021/01/05 00:07:35;;;;;;;7.80;3.65;;;;;;;;;;5048613;28;20070;-72
2021/01/05 00:10:01;;;;;;;4.38;3.15;;;;;;;;;;5046287;28;20029;-72
2021/01/05 00:12:27;;;;;;;8.10;4.43;;;;;;;;;;5040184;28;20020;-72
2021/01/05 00:14:53;;;;;;;5.05;3.50;;;;;;;;;;5048030;28;20470;-72
2021/01/05 00:17:20;;;;;;;4.32;2.95;;;;;;;;;;5048103;28;20025;-72
2021/01/05 00:19:46;;;;;;;4.32;3.55;;;;;;;;;;5046718;28;20024;-72
2021/01/05 00:22:12;;;;;;;7.35;4.03;;;;;;;;;;5048483;28;20021;-72
2021/01/05 00:24:38;;;;;;;4.35;2.88;;;;;;;;;;5050030;28;20029;-72
2021/01/05 00:27:04;;;;;;;5.45;3.10;;;;;;;;;;5045492;28;20041;-72
2021/01/05 00:29:31;;;;;;;6.35;3.83;;;;;;;;;;5041411;28;20112;-72
2021/01/05 00:32:12;;;;;;;4.93;3.15;;;;;;;;;;5035130;28;20026;-72
2021/01/05 00:34:39;;;;;;;7.85;4.53;;;;;;;;;;5035285;28;20438;-72
2021/01/05 00:37:05;;;;;;;4.18;3.08;;;;;;;;;;5039690;28;20025;-72
2021/01/05 00:39:31;;;;;;;6.20;3.70;;;;;;;;;;5052518;28;20096;-72
2021/01/05 00:41:57;;;;;;;4.50;3.63;;;;;;;;;;5034331;28;20079;-72
2021/01/05 00:44:23;;;;;;;4.32;2.88;;;;;;;;;;5046885;28;20196;-72
2021/01/05 00:46:49;;;;;;;7.47;4.18;;;;;;;;;;5055288;28;20111;-72
2021/01/05 00:49:15;;;;;;;8.77;3.65;;;;;;;;;;5064187;28;20032;-72
2021/01/05 00:51:41;;;;;;;5.32;3.75;;;;;;;;;;5043626;28;20084;-72
2021/01/05 00:54:07;;;;;;;7.85;4.50;;;;;;;;;;5057672;28;20025;-72
2021/01/05 00:56:33;;;;;;;6.78;3.58;;;;;;;;;;5054163;28;20028;-72
2021/01/05 00:58:58;;;;;;;8.10;3.53;;;;;;;;;;5051513;28;20090;-72
2021/01/05 01:01:24;;;;;;;4.95;3.13;;;;;;;;;;5048794;28;20482;-72
2021/01/05 01:03:50;;;;;;;5.22;3.55;;;;;;;;;;5050807;28;20029;-72
2021/01/05 01:06:17;;;;;;;7.25;3.67;;;;;;;;;;5047660;28;20037;-72
2021/01/05 01:08:43;;;;;;;7.72;4.10;;;;;;;;;;5048729;28;20074;-72
2021/01/05 01:11:10;;;;;;;6.03;3.50;;;;;;;;;;5046627;28;20037;-72
2021/01/05 01:13:36;;;;;;;5.85;2.85;;;;;;;;;;5042001;28;20029;-72
2021/01/05 01:16:02;;;;;;;6.35;2.97;;;;;;;;;;5049158;28;20543;-72
2021/01/05 01:18:27;;;;;;;4.70;3.05;;;;;;;;;;5049271;28;20029;-72
2021/01/05 01:20:53;;;;;;;5.65;3.83;;;;;;;;;;5050534;28;20029;-72
2021/01/05 01:23:19;;;;;;;5.03;3.53;;;;;;;;;;5048215;28;20112;-72
2021/01/05 01:25:45;;;;;;;6.90;3.63;;;;;;;;;;5054768;28;20458;-72
2021/01/05 01:28:11;;;;;;;5.72;3.65;;;;;;;;;;5051582;28;20037;-72
2021/01/05 01:30:37;;;;;;;5.47;3.92;;;;;;;;;;5049378;28;20036;-74
2021/01/05 01:33:03;;;;;;;5.60;3.88;;;;;;;;;;5045498;28;20409;-73
2021/01/05 01:35:29;;;;;;;7.22;3.45;;;;;;;;;;5040816;28;20028;-72
2021/01/05 01:37:55;;;;;;;9.00;4.30;;;;;;;;;;5048429;28;20028;-73
2021/01/05 01:40:35;;;;;;;6.60;3.80;;;;;;;;;;5054817;28;20024;-73
2021/01/05 01:43:02;;;;;;;7.97;4.28;;;;;;;;;;5050691;28;20381;-74
2021/01/05 01:45:28;;;;;;;5.88;3.97;;;;;;;;;;5042195;28;20474;-74
2021/01/05 01:47:54;;;;;;;8.32;3.95;;;;;;;;;;5044581;28;20062;-74
2021/01/05 01:50:31;;;;;;;7.13;3.78;;;;;;;;;;5049253;28;20032;-74
2021/01/05 01:53:03;;;;;;;5.95;3.40;;;;;;;;;;5039539;28;20044;-74
2021/01/05 01:55:49;;;;;;;6.65;3.85;;;;;;;;;;5047161;28;20025;-73
2021/01/05 01:58:35;;;;;;;5.38;3.85;;;;;;;;;;5045669;28;20036;-74
2021/01/05 02:01:09;;;;;;;6.60;3.90;;;;;;;;;;5045968;28;20561;-74
2021/01/05 02:03:44;;;;;;;5.25;3.38;;;;;;;;;;5050236;28;20508;-74
2021/01/05 02:06:14;;;;;;;5.93;4.13;;;;;;;;;;5055953;28;20047;-74
2021/01/05 02:08:46;;;;;;;6.45;3.80;;;;;;;;;;5054847;28;20428;-74
2021/01/05 02:11:31;;;;;;;7.22;4.60;;;;;;;;;;5046655;28;20040;-74
2021/01/05 02:14:12;;;;;;;6.80;4.13;;;;;;;;;;5052353;28;20020;-74
2021/01/05 02:16:47;;;;;;;9.20;3.90;;;;;;;;;;5054256;28;20078;-72
2021/01/05 02:19:16;;;;;;;6.45;4.15;;;;;;;;;;5047780;28;20052;-73
2021/01/05 02:21:55;;;;;;;7.72;3.90;;;;;;;;;;5048465;28;20417;-72
2021/01/05 02:24:33;;;;;;;7.28;4.07;;;;;;;;;;5054229;28;20081;-72
2021/01/05 02:27:06;;;;;;;6.05;4.13;;;;;;;;;;5050100;28;20039;-73
2021/01/05 02:29:36;;;;;;;6.43;3.92;;;;;;;;;;5062062;28;20527;-72
2021/01/05 02:32:14;;;;;;;6.18;4.10;;;;;;;;;;5051364;28;20037;-72
2021/01/05 02:35:04;;;;;;;6.82;4.00;;;;;;;;;;5052094;28;20027;-72
2021/01/05 02:37:49;;;;;;;6.90;4.00;;;;;;;;;;5046329;28;20390;-73
2021/01/05 02:40:20;;;;;;;7.07;4.45;;;;;;;;;;5046851;28;20029;-73
2021/01/05 02:42:52;;;;;;;9.43;4.65;;;;;;;;;;5056685;28;20063;-73
2021/01/05 02:45:30;;;;;;;7.10;4.55;;;;;;;;;;5054442;28;20051;-73
2021/01/05 02:48:14;;;;;;;6.68;4.40;;;;;;;;;;5052638;28;20096;-72
2021/01/05 02:50:59;;;;;;;5.88;4.28;;;;;;;;;;5050854;28;20075;-73
2021/01/05 02:53:43;;;;;;;8.02;3.67;;;;;;;;;;5049618;28;20033;-73
2021/01/05 02:56:28;;;;;;;5.90;4.07;;;;;;;;;;5050736;28;20083;-73
2021/01/05 02:59:03;;;;;;;5.82;4.05;;;;;;;;;;5038983;28;20025;-72
2021/01/05 03:02:02;;;;;;;8.55;4.63;;;;;;;;;;5050530;28;20029;-73
2021/01/05 03:04:28;;;;;;;7.50;4.75;;;;;;;;;;5032578;28;20033;-73
2021/01/05 03:07:09;;;;;;;7.30;4.03;;;;;;;;;;5048433;28;20035;-72
2021/01/05 03:09:50;;;;;;;7.22;4.65;;;;;;;;;;5051050;28;20474;-73
2021/01/05 03:12:19;;;;;;;5.70;3.90;;;;;;;;;;5041870;28;20505;-72
2021/01/05 03:14:58;;;;;;;7.67;4.30;;;;;;;;;;5064672;28;20048;-73
2021/01/05 03:17:34;;;;;;;5.97;3.58;;;;;;;;;;5037221;28;20333;-72
2021/01/05 03:20:00;;;;;;;6.90;4.45;;;;;;;;;;5043015;28;20104;-73
2021/01/05 03:22:28;;;;;;;7.20;5.07;;;;;;;;;;5048565;28;20690;-73
2021/01/05 03:24:55;;;;;;;7.07;4.32;;;;;;;;;;5054160;28;20028;-72
2021/01/05 03:27:21;;;;;;;7.45;4.30;;;;;;;;;;5050107;28;20052;-73
2021/01/05 03:29:47;;;;;;;7.65;4.70;;;;;;;;;;5046342;28;20021;-72
2021/01/05 03:32:13;;;;;;;8.05;4.72;;;;;;;;;;5041828;28;20036;-72
2021/01/05 03:34:39;;;;;;;8.77;4.55;;;;;;;;;;5056501;28;20514;-72
2021/01/05 03:37:06;;;;;;;7.28;4.57;;;;;;;;;;5049351;28;20399;-73
2021/01/05 03:39:32;;;;;;;6.25;3.88;;;;;;;;;;5048952;28;20067;-72
2021/01/05 03:41:58;;;;;;;9.45;4.70;;;;;;;;;;5052717;28;20036;-72
2021/01/05 03:44:24;;;;;;;6.35;4.47;;;;;;;;;;5044195;28;20032;-72
2021/01/05 03:46:50;;;;;;;8.40;4.80;;;;;;;;;;5048949;28;20803;-72
2021/01/05 03:49:16;;;;;;;7.72;4.93;;;;;;;;;;5049152;28;20039;-72
2021/01/05 03:51:42;;;;;;;9.13;5.20;;;;;;;;;;5048044;28;20029;-72
2021/01/05 03:54:08;;;;;;;8.88;6.15;;;;;;;;;;5047982;28;20104;-72
2021/01/05 03:56:34;;;;;;;9.98;5.47;;;;;;;;;;5044998;28;20045;-73
2021/01/05 03:59:00;;;;;;;8.38;4.95;;;;;;;;;;5059719;28;20489;-73
2021/01/05 04:01:26;;;;;;;9.35;5.22;;;;;;;;;;5051412;28;20024;-72
2021/01/05 04:03:52;;;;;;;7.80;4.60;;;;;;;;;;5048587;28;20474;-72
2021/01/05 04:06:18;;;;;;;9.32;5.60;;;;;;;;;;5050043;28;20024;-72
2021/01/05 04:08:44;;;;;;;8.25;5.35;;;;;;;;;;5054339;28;20486;-72
2021/01/05 04:11:10;;;;;;;10.52;5.60;;;;;;;;;;5057619;28;20100;-73
2021/01/05 04:13:36;;;;;;;8.43;4.82;;;;;;;;;;5052078;28;20466;-72
2021/01/05 04:16:01;;;;;;;8.35;5.68;;;;;;;;;;5050240;28;20055;-73
2021/01/05 04:18:27;;;;;;;8.90;5.32;;;;;;;;;;5041571;28;20502;-72
2021/01/05 04:20:53;;;;;;;10.52;6.28;;;;;;;;;;5055317;28;20525;-72
2021/01/05 04:23:19;;;;;;;10.65;6.28;;;;;;;;;;5044362;28;20064;-72
2021/01/05 04:25:45;;;;;;;9.23;5.00;;;;;;;;;;5047046;28;20528;-72
2021/01/05 04:28:11;;;;;;;8.73;5.13;;;;;;;;;;5066318;28;20029;-73
2021/01/05 04:30:38;;;;;;;8.65;4.93;;;;;;;;;;5048877;28;20090;-72
2021/01/05 04:33:08;;;;;;;9.15;5.53;;;;;;;;;;5046703;28;20016;-72
2021/01/05 04:35:35;;;;;;;11.82;5.35;;;;;;;;;;5040726;28;20020;-72
2021/01/05 04:38:01;;;;;;;10.55;5.70;;;;;;;;;;5043141;28;20025;-72
2021/01/05 04:40:30;;;;;;;10.43;6.20;;;;;;;;;;5045188;28;20030;-73
2021/01/05 04:43:08;;;;;;;8.32;5.15;;;;;;;;;;5045526;28;20385;-72
2021/01/05 04:45:37;;;;;;;8.15;4.97;;;;;;;;;;5048033;28;20442;-72
2021/01/05 04:48:09;;;;;;;9.00;5.00;;;;;;;;;;5054846;28;20033;-72
2021/01/05 04:50:48;;;;;;;8.18;5.50;;;;;;;;;;5047028;28;20060;-72
2021/01/05 04:53:14;;;;;;;9.43;5.60;;;;;;;;;;5050714;28;20479;-73
2021/01/05 04:55:54;;;;;;;10.07;5.45;;;;;;;;;;5057210;28;20095;-72
2021/01/05 04:58:29;;;;;;;8.43;4.55;;;;;;;;;;5045359;28;20099;-72
2021/01/05 05:00:56;;;;;;;8.18;5.57;;;;;;;;;;5055314;28;20082;-72
2021/01/05 05:03:40;;;;;;;7.88;4.95;;;;;;;;;;5042483;28;20029;-73
2021/01/05 05:06:25;;;;;;;8.35;5.18;;;;;;;;;;5053657;28;20453;-73
2021/01/05 05:08:59;;;;;;;11.55;6.43;;;;;;;;;;5047968;28;20040;-73
2021/01/05 05:11:29;;;;;;;8.60;5.13;;;;;;;;;;5043817;28;20025;-72
2021/01/05 05:14:10;;;;;;;7.85;4.50;;;;;;;;;;5052785;28;20028;-74
2021/01/05 05:16:55;;;;;;;7.80;4.90;;;;;;;;;;5049348;28;20293;-74
2021/01/05 05:19:41;;;;;;;6.28;4.57;;;;;;;;;;5042228;28;20482;-74
2021/01/05 05:22:11;;;;;;;7.20;4.68;;;;;;;;;;5026357;28;20033;-74
2021/01/05 05:24:37;;;;;;;;;;;;;;;;;;5046584;28;20024;-74
2021/01/05 05:27:15;;;;;;;6.75;4.45;;;;;;;;;;5048643;28;19908;-74
2021/01/05 05:29:50;;;;;;;8.70;4.80;;;;;;;;;;5049241;28;20032;-74
2021/01/05 05:32:20;;;;;;;7.32;4.65;;;;;;;;;;5038674;28;20029;-74
2021/01/05 05:34:52;;;;;;;8.00;4.93;;;;;;;;;;5055680;28;20025;-72
2021/01/05 05:37:28;;;;;;;7.47;4.65;;;;;;;;;;5042741;28;20540;-72
2021/01/05 05:39:58;;;;;;;9.23;5.15;;;;;;;;;;5042747;28;20028;-72
2021/01/05 05:42:33;;;;;;;9.27;4.65;;;;;;;;;;5039229;28;20021;-72
2021/01/05 05:45:06;;;;;;;6.75;4.22;;;;;;;;;;5057149;28;20028;-72
2021/01/05 05:47:35;;;;;;;9.45;4.28;;;;;;;;;;5049697;28;20029;-72
2021/01/05 05:50:16;;;;;;;7.28;4.40;;;;;;;;;;5058866;28;20044;-72
2021/01/05 05:52:42;;;;;;;8.00;4.93;;;;;;;;;;5040626;28;20039;-73
2021/01/05 05:55:23;;;;;;;9.43;5.15;;;;;;;;;;5053309;28;20095;-73
2021/01/05 05:57:50;;;;;;;10.25;5.60;;;;;;;;;;5055629;28;20493;-73
2021/01/05 06:00:19;;;;;;;8.43;5.40;;;;;;;;;;5047716;28;20540;-73
2021/01/05 06:02:45;;;;;;;8.13;4.63;;;;;;;;;;5050174;28;20029;-72
2021/01/05 06:05:24;;;;;;;9.65;5.57;;;;;;;;;;5061209;28;20036;-72
2021/01/05 06:07:49;;;;;;;8.38;5.45;;;;;;;;;;5055379;28;20505;-72
2021/01/05 06:10:15;;;;;;;8.43;5.18;;;;;;;;;;5054494;28;20056;-72
2021/01/05 06:12:41;;;;;;;10.23;6.40;;;;;;;;;;5048230;28;20056;-72
2021/01/05 06:15:08;;;;;;;8.45;4.82;;;;;;;;;;5047426;28;20463;-72
2021/01/05 06:17:34;;;;;;;10.13;5.82;;;;;;;;;;5046898;28;20029;-74
2021/01/05 06:20:00;;;;;;;10.13;5.63;;;;;;;;;;5040273;28;20049;-72
2021/01/05 06:22:25;;;;;;;10.35;5.90;;;;;;;;;;5039658;28;20037;-72
2021/01/05 06:24:51;;;;;;;11.00;5.03;;;;;;;;;;5050782;28;20029;-72
2021/01/05 06:27:17;;;;;;;11.70;6.03;;;;;;;;;;5056567;28;20044;-72
2021/01/05 06:29:43;;;;;;;10.48;5.35;;;;;;;;;;5045556;28;20041;-72
2021/01/05 06:32:09;;;;;;;10.40;5.55;;;;;;;;;;5046936;28;20044;-72
2021/01/05 06:34:35;;;;;;;11.40;6.43;;;;;;;;;;5048170;28;20047;-72
2021/01/05 06:37:01;;;;;;;10.32;6.30;;;;;;;;;;5045607;28;20112;-72
2021/01/05 06:39:27;;;;;;;9.90;5.75;;;;;;;;;;5045708;28;20565;-72
2021/01/05 06:41:53;;;;;;;12.15;6.03;;;;;;;;;;5035854;28;20942;-72
2021/01/05 06:44:19;;;;;;;12.20;6.53;;;;;;;;;;5048095;28;20082;-72
2021/01/05 06:46:47;;;;;;;13.07;7.05;;;;;;;;;;5047195;28;20048;-72
2021/01/05 06:49:13;;;;;;;12.77;6.15;;;;;;;;;;5033059;28;20115;-73
2021/01/05 06:51:39;;;;;;;13.75;7.55;;;;;;;;;;5046020;28;20071;-73
2021/01/05 06:54:05;;;;;;;12.05;6.57;;;;;;;;;;5046256;28;20178;-73
2021/01/05 06:56:31;;;;;;;13.40;6.95;;;;;;;;;;5033551;28;20021;-73
2021/01/05 06:58:57;;;;;;;15.52;7.05;;;;;;;;;;5047307;28;20533;-73
2021/01/05 07:01:23;;;;;;;14.50;7.28;;;;;;;;;;5043794;28;20410;-73
2021/01/05 07:03:49;;;;;;;13.60;7.05;;;;;;;;;;5046517;28;20029;-73
2021/01/05 07:06:15;;;;;;;12.82;7.13;;;;;;;;;;5057303;28;20040;-74
2021/01/05 07:08:41;;;;;;;13.02;7.05;;;;;;;;;;5047383;28;20048;-73
2021/01/05 07:11:07;;;;;;;12.70;6.93;;;;;;;;;;5059020;28;20037;-73
2021/01/05 07:13:33;;;;;;;13.93;6.60;;;;;;;;;;5064808;28;20037;-74
2021/01/05 07:15:59;;;;;;;13.82;6.90;;;;;;;;;;5047434;28;20033;-74
2021/01/05 07:18:25;;;;;;;15.50;8.13;;;;;;;;;;5048134;28;20029;-73
2021/01/05 07:20:51;;;;;;;15.73;8.35;;;;;;;;;;5049155;28;20483;-74
2021/01/05 07:23:17;;;;;;;14.50;7.45;;;;;;;;;;5053557;28;20089;-74
2021/01/05 07:25:43;;;;;;;16.65;8.25;;;;;;;;;;5052377;28;20025;-74
2021/01/05 07:28:09;;;;;;;16.48;9.50;;;;;;;;;;5050215;28;20040;-73
2021/01/05 07:30:35;;;;;;;15.43;8.30;;;;;;;;;;5050695;28;20779;-73
2021/01/05 07:33:00;;;;;;;15.10;7.88;;;;;;;;;;5044562;28;20049;-74
2021/01/05 07:35:26;;;;;;;15.25;7.90;;;;;;;;;;5042942;28;20086;-73
2021/01/05 07:37:52;;;;;;;15.60;8.63;;;;;;;;;;5035710;28;20460;-74
2021/01/05 07:40:18;;;;;;;14.85;7.70;;;;;;;;;;5041423;28;20037;-74
2021/01/05 07:42:44;;;;;;;15.90;8.30;;;;;;;;;;5048653;28;20371;-72
2021/01/05 07:45:17;;;;;;;17.42;8.43;;;;;;;;;;5039959;28;20406;-72
2021/01/05 07:47:43;;;;;;;18.15;9.82;;;;;;;;;;5056107;28;20053;-72
2021/01/05 07:50:16;;;;;;;17.40;8.90;;;;;;;;;;5038896;28;20068;-72
2021/01/05 07:52:42;;;;;;;17.55;8.65;;;;;;;;;;5035098;28;20028;-72
2021/01/05 07:55:18;;;;;;;13.95;8.07;;;;;;;;;;5050320;28;20060;-72
2021/01/05 07:57:44;;;;;;;17.63;8.75;;;;;;;;;;5043331;28;20387;-72
2021/01/05 08:00:13;;;;;;;14.38;8.57;;;;;;;;;;5030041;28;20368;-72
2021/01/05 08:02:39;;;;;;;15.90;8.40;;;;;;;;;;5038480;28;20057;-73
2021/01/05 08:05:05;;;;;;;13.07;6.72;;;;;;;;;;5056393;28;20067;-72
2021/01/05 08:07:31;;;;;;;15.73;7.80;;;;;;;;;;5052991;28;20037;-72
2021/01/05 08:09:57;;;;;;;14.55;7.47;;;;;;;;;;5038169;28;20033;-72
2021/01/05 08:12:23;;;;;;;12.32;6.53;;;;;;;;;;5036351;28;20445;-72
2021/01/05 08:14:49;;;;;;;12.13;7.63;;;;;;;;;;5055558;28;20116;-72
2021/01/05 08:17:15;;;;;;;12.95;7.07;;;;;;;;;;5036712;28;20595;-72
2021/01/05 08:19:42;;;;;;;14.63;7.70;;;;;;;;;;5038718;28;20175;-72
2021/01/05 08:22:07;;;;;;;15.95;8.60;;;;;;;;;;5043508;28;20025;-72
2021/01/05 08:24:33;;;;;;;13.35;7.18;;;;;;;;;;5033271;28;20041;-72
2021/01/05 08:26:59;;;;;;;12.77;6.40;;;;;;;;;;5047118;28;20025;-71
2021/01/05 08:29:25;;;;;;;12.88;7.50;;;;;;;;;;5031915;28;20394;-71
2021/01/05 08:31:51;;;;;;;11.63;6.00;;;;;;;;;;5032764;28;20065;-72
2021/01/05 08:34:17;;;;;;;14.57;7.47;;;;;;;;;;5034507;28;20335;-72
2021/01/05 08:36:43;;;;;;;10.32;5.95;;;;;;;;;;5038102;28;20040;-71
2021/01/05 08:39:13;;;;;;;16.20;7.43;;;;;;;;;;5041740;28;20052;-72
2021/01/05 08:41:40;;;;;;;10.82;6.63;;;;;;;;;;5035352;28;20271;-71
2021/01/05 08:44:06;;;;;;;12.40;7.15;;;;;;;;;;5021643;28;20056;-73
2021/01/05 08:46:32;;;;;;;13.57;6.63;;;;;;;;;;5007077;28;20037;-73
2021/01/05 08:48:58;;;;;;;11.52;6.88;;;;;;;;;;5009878;28;20403;-74
2021/01/05 08:51:24;;;;;;;11.98;6.25;;;;;;;;;;5019665;28;20210;-75
2021/01/05 08:53:51;;;;;;;14.85;6.78;;;;;;;;;;5019438;28;20033;-73
2021/01/05 08:56:18;;;;;;;11.75;6.18;;;;;;;;;;5021498;28;20028;-73
2021/01/05 08:58:44;;;;;;;12.65;7.25;;;;;;;;;;5021871;28;20129;-74
2021/01/05 09:01:10;;;;;;;14.95;7.43;;;;;;;;;;5026226;28;20694;-74
2021/01/05 09:03:36;;;;;;;15.13;7.32;;;;;;;;;;5024749;28;20040;-74
2021/01/05 09:06:02;;;;;;;14.45;7.47;;;;;;;;;;5014480;28;20104;-74
2021/01/05 09:08:31;;;;;;;13.98;7.72;;;;;;;;;;5020063;28;20037;-74
2021/01/05 09:11:01;;;;;;;11.35;6.47;;;;;;;;;;5019360;28;20395;-74
2021/01/05 09:13:28;;;;;;;14.95;7.25;;;;;;;;;;5016450;28;20017;-73
2021/01/05 09:15:55;;;;;;;11.25;6.53;;;;;;;;;;5019111;28;20559;-74
2021/01/05 09:18:21;;;;;;;11.98;6.35;;;;;;;;;;5029661;28;20048;-75
2021/01/05 09:20:49;;;;;;;14.05;7.35;;;;;;;;;;5040954;28;20040;-74
2021/01/05 09:23:15;;;;;;;14.18;7.35;;;;;;;;;;5038437;28;20082;-72
2021/01/05 09:25:41;;;;;;;15.98;8.10;;;;;;;;;;5040894;28;20033;-72
2021/01/05 09:28:07;;;;;;;16.42;8.43;;;;;;;;;;5041307;28;20517;-73
2021/01/05 09:30:33;;;;;;;16.20;8.85;;;;;;;;;;5055185;28;20032;-73
2021/01/05 09:32:59;;;;;;;16.02;7.85;;;;;;;;;;5038643;28;20527;-73
2021/01/05 09:35:25;;;;;;;14.70;7.43;;;;;;;;;;5040864;28;20033;-72
2021/01/05 09:37:51;;;;;;;14.35;8.52;;;;;;;;;;5045208;28;20028;-73
2021/01/05 09:40:18;;;;;;;14.25;7.25;;;;;;;;;;5058263;28;20022;-73
2021/01/05 09:42:45;;;;;;;15.05;8.07;;;;;;;;;;5039768;28;20116;-73
2021/01/05 09:45:11;;;;;;;14.13;7.60;;;;;;;;;;5046491;28;20071;-73
2021/01/05 09:47:37;;;;;;;14.20;7.70;;;;;;;;;;5043529;28;20372;-73
2021/01/05 09:50:04;;;;;;;14.68;7.78;;;;;;;;;;5041909;28;20052;-73
2021/01/05 09:52:34;;;;;;;11.48;6.22;;;;;;;;;;5053411;28;20084;-73
2021/01/05 09:55:00;;;;;;;13.23;7.82;;;;;;;;;;5038209;28;20063;-74
2021/01/05 09:57:26;;;;;;;16.95;7.60;;;;;;;;;;5040443;28;20065;-74
2021/01/05 09:59:52;;;;;;;15.68;7.47;;;;;;;;;;5042352;28;20025;-74
2021/01/05 10:02:17;;;;;;;12.90;7.65;;;;;;;;;;5040548;28;20394;-75
2021/01/05 10:04:43;;;;;;;15.30;6.90;;;;;;;;;;5039494;28;20833;-72
2021/01/05 10:07:09;;;;;;;13.55;6.90;;;;;;;;;;5041349;28;20445;-74
2021/01/05 10:09:38;;;;;;;11.85;6.30;;;;;;;;;;5045388;28;20048;-73
2021/01/05 10:12:05;;;;;;;13.43;6.20;;;;;;;;;;5042330;28;20551;-72
2021/01/05 10:14:31;;;;;;;11.82;5.95;;;;;;;;;;5046069;28;20030;-72
2021/01/05 10:16:58;;;;;;;11.10;6.25;;;;;;;;;;5049506;28;20021;-73
2021/01/05 10:19:24;;;;;;;15.70;6.38;;;;;;;;;;5047076;28;20074;-73
2021/01/05 10:21:51;;;;;;;11.52;5.88;;;;;;;;;;5044290;28;20078;-72
2021/01/05 10:24:17;;;;;;;13.35;6.05;;;;;;;;;;5043275;28;20470;-71
2021/01/05 10:26:53;;;;;;;17.25;6.07;;;;;;;;;;5041159;28;20189;-71
2021/01/05 10:29:20;;;;;;;12.65;6.45;;;;;;;;;;5057380;28;20036;-73
2021/01/05 10:31:46;;;;;;;12.80;6.80;;;;;;;;;;5035741;28;20125;-72
2021/01/05 10:34:13;;;;;;;12.93;7.00;;;;;;;;;;5033577;28;20034;-72
2021/01/05 10:36:39;;;;;;;11.68;6.40;;;;;;;;;;5051085;28;20025;-73
2021/01/05 10:39:09;;;;;;;12.18;6.55;;;;;;;;;;5046910;28;20486;-73
2021/01/05 10:41:35;;;;;;;;;;;;;;;;;;5044137;28;20116;-73
2021/01/05 10:44:01;;;;;;;13.27;6.82;;;;;;;;;;5037255;28;20000;-73
2021/01/05 10:46:27;;;;;;;13.13;6.95;;;;;;;;;;5044470;28;20037;-72
2021/01/05 10:48:53;;;;;;;13.70;6.13;;;;;;;;;;5046535;28;20041;-73
2021/01/05 10:51:19;;;;;;;11.35;5.72;;;;;;;;;;5035297;28;20057;-72
2021/01/05 10:53:45;;;;;;;9.50;5.10;;;;;;;;;;5051393;28;20060;-72
2021/01/05 10:56:14;;;;;;;11.48;5.85;;;;;;;;;;5050516;28;20024;-73
2021/01/05 10:58:40;;;;;;;12.32;7.00;;;;;;;;;;5050976;28;20052;-72
2021/01/05 11:01:07;;;;;;;9.63;5.25;;;;;;;;;;5050230;28;20461;-72
2021/01/05 11:03:33;;;;;;;10.73;5.32;;;;;;;;;;5050205;28;20486;-72
2021/01/05 11:05:59;;;;;;;11.43;4.85;;;;;;;;;;5051197;28;20025;-72
2021/01/05 11:08:25;;;;;;;9.90;5.22;;;;;;;;;;5040979;28;20059;-72
2021/01/05 11:10:51;;;;;;;10.10;4.90;;;;;;;;;;5050713;28;20043;-72
2021/01/05 11:13:17;;;;;;;10.77;4.55;;;;;;;;;;5048720;28;20021;-72
2021/01/05 11:15:43;;;;;;;9.18;4.10;;;;;;;;;;5050383;28;20033;-72
2021/01/05 11:18:09;;;;;;;9.88;4.15;;;;;;;;;;5047519;28;20041;-71
2021/01/05 11:20:35;;;;;;;7.80;4.10;;;;;;;;;;5052221;28;20387;-71
2021/01/05 11:23:01;;;;;;;7.97;3.90;;;;;;;;;;5034534;28;20029;-71
2021/01/05 11:25:27;;;;;;;9.10;4.43;;;;;;;;;;5041949;28;20036;-71
2021/01/05 11:27:53;;;;;;;6.63;3.92;;;;;;;;;;5043163;28;20029;-71
2021/01/05 11:30:21;;;;;;;6.43;4.10;;;;;;;;;;5050680;28;20032;-71
2021/01/05 11:32:47;;;;;;;8.50;4.28;;;;;;;;;;5051994;28;20029;-71
2021/01/05 11:35:13;;;;;;;9.18;3.65;;;;;;;;;;5051274;28;20052;-72
2021/01/05 11:37:39;;;;;;;7.25;4.40;;;;;;;;;;5049212;28;20087;-71
2021/01/05 11:40:06;;;;;;;6.57;4.32;;;;;;;;;;5052301;28;20020;-71
2021/01/05 11:42:32;;;;;;;9.48;4.38;;;;;;;;;;5051782;28;20040;-71
2021/01/05 11:44:58;;;;;;;6.57;3.83;;;;;;;;;;5042520;28;20487;-71
2021/01/05 11:47:24;;;;;;;5.88;3.83;;;;;;;;;;5059016;28;20037;-72
2021/01/05 11:49:50;;;;;;;8.02;4.22;;;;;;;;;;5048491;28;20083;-71
2021/01/05 11:52:17;;;;;;;7.10;3.97;;;;;;;;;;5048160;28;20039;-72
2021/01/05 11:54:43;;;;;;;6.80;4.25;;;;;;;;;;5051212;28;20074;-72
2021/01/05 11:57:09;;;;;;;8.73;4.70;;;;;;;;;;5048597;28;20076;-72
2021/01/05 11:59:35;;;;;;;9.52;3.92;;;;;;;;;;5052288;28;20021;-71
2021/01/05 12:02:01;;;;;;;7.38;3.72;;;;;;;;;;5048249;28;20128;-72
2021/01/05 12:04:28;;;;;;;8.32;3.20;;;;;;;;;;5051249;28;20060;-71
2021/01/05 12:06:55;;;;;;;6.35;2.92;;;;;;;;;;5053715;28;20028;-72
2021/01/05 12:09:22;;;;;;;6.97;3.28;;;;;;;;;;5048460;28;20202;-72
2021/01/05 12:11:48;;;;;;;6.78;3.80;;;;;;;;;;5052455;28;20028;-72
2021/01/05 12:14:14;;;;;;;8.68;4.05;;;;;;;;;;5054161;28;20090;-72
2021/01/05 12:16:41;;;;;;;6.47;3.35;;;;;;;;;;5043441;28;20029;-72
2021/01/05 12:19:12;;;;;;;6.85;3.55;;;;;;;;;;5049880;28;20076;-72
2021/01/05 12:21:38;;;;;;;;;;;;;;;;;;5047713;28;20025;-72
2021/01/05 12:24:05;;;;;;;8.05;4.00;;;;;;;;;;5045663;28;19920;-73
2021/01/05 12:26:32;;;;;;;6.45;3.78;;;;;;;;;;5043895;28;20036;-73
2021/01/05 12:28:59;;;;;;;7.65;3.50;;;;;;;;;;5049365;28;20036;-74
2021/01/05 12:31:26;;;;;;;6.22;3.60;;;;;;;;;;5048793;28;20032;-74
2021/01/05 12:33:52;;;;;;;8.52;3.92;;;;;;;;;;5042438;28;20029;-74
2021/01/05 12:36:29;;;;;;;7.80;3.25;;;;;;;;;;5057821;28;20028;-73
2021/01/05 12:38:55;;;;;;;7.88;3.65;;;;;;;;;;5053611;28;20035;-73
2021/01/05 12:41:21;;;;;;;6.60;2.95;;;;;;;;;;5048023;28;20112;-74
2021/01/05 12:43:47;;;;;;;5.93;2.80;;;;;;;;;;5046348;28;20438;-73
2021/01/05 12:46:21;;;;;;;5.88;3.58;;;;;;;;;;5058771;28;20041;-73
2021/01/05 12:48:47;;;;;;;4.65;2.63;;;;;;;;;;5030405;28;20041;-73
2021/01/05 12:51:13;;;;;;;6.55;3.70;;;;;;;;;;5048967;28;20663;-73
2021/01/05 12:53:40;;;;;;;5.40;2.75;;;;;;;;;;5050153;28;20059;-73
2021/01/05 12:56:06;;;;;;;6.20;2.90;;;;;;;;;;5049800;28;20055;-73
2021/01/05 12:58:33;;;;;;;7.65;3.53;;;;;;;;;;5046351;28;20013;-73
2021/01/05 13:00:58;;;;;;;5.55;3.10;;;;;;;;;;5050474;28;20036;-73
2021/01/05 13:03:24;;;;;;;6.65;3.42;;;;;;;;;;5047982;28;20025;-73
2021/01/05 13:05:50;;;;;;;6.32;3.50;;;;;;;;;;5039893;28;20029;-73
2021/01/05 13:08:16;;;;;;;7.97;4.22;;;;;;;;;;5048047;28;20028;-73
2021/01/05 13:10:42;;;;;;;7.18;4.38;;;;;;;;;;5043685;28;20532;-73
2021/01/05 13:13:08;;;;;;;8.23;3.47;;;;;;;;;;5042033;28;20028;-73
2021/01/05 13:15:36;;;;;;;5.88;3.20;;;;;;;;;;5041121;28;20043;-73
2021/01/05 13:18:03;;;;;;;7.03;3.58;;;;;;;;;;5034575;28;20075;-73
2021/01/05 13:20:29;;;;;;;5.88;3.05;;;;;;;;;;5054461;28;20677;-73
2021/01/05 13:22:55;;;;;;;6.95;3.63;;;;;;;;;;5043799;28;20025;-73
2021/01/05 13:25:21;;;;;;;6.97;3.08;;;;;;;;;;5043091;28;20572;-73
2021/01/05 13:27:47;;;;;;;7.60;4.10;;;;;;;;;;5043678;28;20029;-73
2021/01/05 13:30:17;;;;;;;7.03;3.90;;;;;;;;;;5044554;28;20092;-73
2021/01/05 13:32:43;;;;;;;5.60;2.90;;;;;;;;;;5046351;28;20067;-73
2021/01/05 13:35:09;;;;;;;7.13;3.60;;;;;;;;;;5036629;28;20028;-73
2021/01/05 13:37:35;;;;;;;7.22;3.70;;;;;;;;;;5055743;28;20563;-73
2021/01/05 13:40:01;;;;;;;8.13;4.45;;;;;;;;;;5041883;28;20067;-73
2021/01/05 13:42:27;;;;;;;5.63;3.67;;;;;;;;;;5058924;28;20033;-73
2021/01/05 13:44:53;;;;;;;9.45;4.18;;;;;;;;;;5046829;28;20094;-73
2021/01/05 13:47:21;;;;;;;8.60;4.05;;;;;;;;;;5036587;28;20104;-73
2021/01/05 13:49:47;;;;;;;6.15;3.55;;;;;;;;;;5049094;28;20036;-73
2021/01/05 13:52:14;;;;;;;4.78;2.75;;;;;;;;;;5046585;28;20069;-73
2021/01/05 13:54:41;;;;;;;7.85;3.63;;;;;;;;;;5040620;28;20049;-73
2021/01/05 13:57:07;;;;;;;7.53;4.32;;;;;;;;;;5038750;28;20100;-73
2021/01/05 13:59:33;;;;;;;8.32;3.53;;;;;;;;;;5039728;28;20043;-73
2021/01/05 14:02:01;;;;;;;7.20;3.90;;;;;;;;;;5052348;28;20025;-73
2021/01/05 14:04:27;;;;;;;6.70;4.38;;;;;;;;;;5033702;28;20580;-74
2021/01/05 14:06:54;;;;;;;7.88;4.03;;;;;;;;;;5058314;28;20033;-74
2021/01/05 14:09:20;;;;;;;8.25;4.20;;;;;;;;;;5039610;28;20032;-74
2021/01/05 14:11:48;;;;;;;6.95;3.83;;;;;;;;;;5042034;28;20548;-73
2021/01/05 14:14:14;;;;;;;7.43;3.78;;;;;;;;;;5044675;28;20017;-73
2021/01/05 14:16:40;;;;;;;8.65;4.05;;;;;;;;;;5038055;28;20018;-73
2021/01/05 14:19:06;;;;;;;9.00;4.03;;;;;;;;;;5057714;28;20118;-73
2021/01/05 14:21:37;;;;;;;8.30;4.22;;;;;;;;;;5056317;28;20544;-73
2021/01/05 14:24:02;;;;;;;;;;;;;;;;;;5043257;28;20505;-73
2021/01/05 14:26:30;;;;;;;8.93;4.55;;;;;;;;;;5043495;28;19913;-74
2021/01/05 14:28:56;;;;;;;9.82;4.95;;;;;;;;;;5039072;28;20029;-74
2021/01/05 14:31:23;;;;;;;10.30;4.85;;;;;;;;;;5042564;28;20025;-73
2021/01/05 14:33:49;;;;;;;10.68;4.82;;;;;;;;;;5042846;28;20434;-73
2021/01/05 14:36:18;;;;;;;10.48;5.40;;;;;;;;;;5047412;28;20025;-73
2021/01/05 14:38:44;;;;;;;10.05;5.13;;;;;;;;;;5037912;28;20055;-73
2021/01/05 14:41:10;;;;;;;9.43;4.97;;;;;;;;;;5041213;28;20033;-73
2021/01/05 14:43:36;;;;;;;13.55;7.47;;;;;;;;;;5050441;28;20079;-73